Tropical Cyclones
[Index]
Main Index Home Page Stock Weather Photos Extreme Storms Discussion Storm News and Storm Chasing Reports Tropical Cyclones / Hurricanes / Typhoons Weather Data and Links Wild Fires / Bushfires Weather Observation Techniques Weather Picture Catalogue Tornado Pictures and Reports Stock Video Footage and DVDs for sale
Season 2006-2007 Tropical Cyclone NELSON Track Map
Season 2006-2007 Summaries: [BoM-AU] [JTWC-AU] [JTWC-SIO] [JTWC-SPAC] [JTWC-SH]
<<- Previous TC | BoM 2006-2007 Season | Next TC ->>

click for intensity scale information  Lat/long Grid: Show Hide

 Date Labels: Show Hide

Bureau of Meteorology Tropical Cyclone Data

Name: NELSON
Number: 904 / 200607_05

31 Jan 2007 15:00 UTC to 07 Feb 2007 12:00 UTC

    date/time    lat    long    hPa   cat  kts
2007-01-31 15   11.1   137.0   1001         20          
2007-01-31 18   11.1   137.1   1001         20          
2007-01-31 21   11.2   137.1   1000         20          
2007-02-01 00   11.1   137.4   1000         25          
2007-02-01 03   11.2   137.8   1000         25          
2007-02-01 06   11.4   138.2    998         30          
2007-02-01 09   11.6   138.7    998         30          
2007-02-01 12   11.7   139.1    998         30          
2007-02-01 15   12.0   139.3    998         25          
2007-02-01 18   12.5   139.4    998         25          
2007-02-01 21   12.9   139.1    998         25          
2007-02-02 00   13.3   138.8    997         30          
2007-02-02 03   13.6   138.4    997         30          
2007-02-02 06   13.8   138.3    998         25          
2007-02-02 09   14.0   138.2    998         25          
2007-02-02 12   14.1   138.1    998         25          
2007-02-02 15   14.2   138.1    998         25          
2007-02-02 18   14.5   138.1    998         25          
2007-02-02 21   14.6   138.0    998         25          
2007-02-03 00   14.7   137.9    999         25          
2007-02-03 03   14.8   137.8   1000         25          
2007-02-03 06   14.9   137.8    998         25          
2007-02-03 09   15.0   137.8    998         25          
2007-02-03 12   15.1   137.9    998         25          
2007-02-03 15   15.2   137.8    998         25          
2007-02-03 18   15.3   137.7    998         25          
2007-02-03 21   15.5   137.6    998         25          
2007-02-04 00   15.6   137.4   1000         25          
2007-02-04 03   15.7   137.3    999         25          
2007-02-04 06   15.9   137.2    999         25          
2007-02-04 09   15.8   137.1    999         25          
2007-02-04 12   15.7   137.1    999         25          
2007-02-04 15   15.7   137.0    999         25          
2007-02-04 18   15.7   136.9    998         25          
2007-02-04 21   15.7   137.0    998         25          
2007-02-05 00   15.8   137.2    999         25          
2007-02-05 03   15.7   137.3    997         25          
2007-02-05 06   15.7   137.3    996         25          
2007-02-05 09   15.7   137.6    997         25          
2007-02-05 12   15.5   138.0    997         25          
2007-02-05 15   15.6   138.3    996         30          
2007-02-05 18   15.8   138.6    995    1    32          
2007-02-05 21   15.9   138.9    992    1    35          
2007-02-06 00   15.9   139.3    992    1    35          
2007-02-06 03   16.0   139.8    990    1    40          
2007-02-06 06   16.0   140.4    988    1    45          
2007-02-06 09   16.1   140.7    985    2    50          
2007-02-06 12   16.2   141.0    985    2    50          
2007-02-06 15   16.2   141.2    985    2    50          
2007-02-06 18   16.2   141.4    985    2    50          
2007-02-06 21   16.2   141.5    988    1    45          
2007-02-07 00   16.2   141.6    990    1    35          
2007-02-07 03   16.2   142.0    992    1    30          
2007-02-07 06   16.1   142.5    992    1    30          
2007-02-07 09   16.0   143.1    994    1    20          
2007-02-07 12   15.9   143.7    996         15          
Winds are 10-min average.

Tropical cyclone tracks developed by Michael Bath using data from the Bureau of Meteorology and Google Maps.


[Australian Severe Weather index] [Copyright Notice] [Email Contacts] [Search This Site] [Privacy Policy]
Document: tropical_cyclone_nelson.htm Updated: 29 June 2017